createdAt,value
2022-10-30T00:00:25.882Z,8.80
2022-10-30T00:03:15.075Z,8.25
2022-10-30T00:06:06.226Z,13.02
2022-10-30T00:08:54.743Z,8.35
2022-10-30T00:11:43.423Z,9.30
2022-10-30T00:14:33.423Z,8.15
2022-10-30T00:17:21.885Z,7.72
2022-10-30T00:20:11.108Z,9.00
2022-10-30T00:23:00.176Z,9.35
2022-10-30T00:25:48.944Z,7.18
2022-10-30T00:28:37.525Z,8.35
2022-10-30T00:31:27.456Z,9.38
2022-10-30T00:34:16.143Z,8.15
2022-10-30T00:37:04.664Z,7.82
2022-10-30T00:39:53.139Z,8.20
2022-10-30T00:42:41.652Z,9.25
2022-10-30T00:45:30.091Z,7.32
2022-10-30T00:48:20.403Z,9.05
2022-10-30T00:51:11.129Z,7.25
2022-10-30T00:54:01.398Z,9.07
2022-10-30T00:56:50.505Z,8.85
2022-10-30T00:59:39.399Z,7.32
2022-10-30T01:02:28.781Z,7.72
2022-10-30T01:05:20.557Z,6.82
2022-10-30T01:08:09.084Z,10.52
2022-10-30T01:11:01.666Z,9.95
2022-10-30T01:13:51.167Z,6.85
2022-10-30T01:16:48.991Z,6.90
2022-10-30T01:19:42.849Z,13.95
2022-10-30T01:22:42.419Z,8.02
2022-10-30T01:25:40.183Z,7.38
2022-10-30T01:28:37.510Z,6.75
2022-10-30T01:31:35.560Z,6.65
2022-10-30T01:34:39.614Z,6.60
2022-10-30T01:37:36.286Z,6.20
2022-10-30T01:40:25.130Z,7.00
2022-10-30T01:43:13.657Z,6.72
2022-10-30T01:46:15.730Z,6.57
2022-10-30T01:49:13.920Z,7.07
2022-10-30T01:52:07.775Z,9.55
2022-10-30T01:55:03.612Z,5.75
2022-10-30T01:57:56.810Z,8.25
2022-10-30T02:00:45.639Z,6.22
2022-10-30T02:03:34.058Z,8.05
2022-10-30T02:06:22.502Z,6.97
2022-10-30T02:09:13.497Z,7.53
2022-10-30T02:12:03.937Z,6.85
2022-10-30T02:14:54.830Z,7.50
2022-10-30T02:17:43.356Z,5.53
2022-10-30T02:20:33.496Z,5.45
2022-10-30T02:23:22.398Z,5.38
2022-10-30T02:26:10.930Z,6.18
2022-10-30T02:28:59.425Z,7.82
2022-10-30T02:31:48.157Z,5.68
2022-10-30T02:34:38.862Z,7.07
2022-10-30T02:37:28.743Z,5.95
2022-10-30T02:40:17.400Z,5.15
2022-10-30T02:43:06.011Z,5.90
2022-10-30T02:45:55.406Z,6.32
2022-10-30T02:48:43.822Z,7.85
2022-10-30T02:51:33.273Z,8.57
2022-10-30T02:54:23.223Z,6.97
2022-10-30T02:57:11.768Z,5.22
2022-10-30T03:00:00.299Z,5.43
2022-10-30T03:02:48.773Z,8.35
2022-10-30T03:05:37.266Z,6.07
2022-10-30T03:08:25.695Z,6.45
2022-10-30T03:11:17.291Z,6.50
2022-10-30T03:14:05.690Z,5.13
2022-10-30T03:16:54.272Z,6.68
2022-10-30T03:19:42.691Z,6.22
2022-10-30T03:22:31.168Z,4.68
2022-10-30T03:25:23.666Z,5.15
2022-10-30T03:28:13.835Z,7.53
2022-10-30T03:31:03.671Z,8.77
2022-10-30T03:33:52.270Z,4.97
2022-10-30T03:36:43.164Z,4.65
2022-10-30T03:39:31.583Z,4.82
2022-10-30T03:42:20.149Z,5.18
2022-10-30T03:45:10.938Z,4.18
2022-10-30T03:47:59.768Z,5.05
2022-10-30T03:50:48.611Z,4.55
2022-10-30T03:53:37.044Z,4.53
2022-10-30T03:56:25.583Z,3.78
2022-10-30T03:59:14.152Z,4.85
2022-10-30T04:02:03.951Z,7.10
2022-10-30T04:04:52.626Z,4.18
2022-10-30T04:07:41.162Z,4.22
2022-10-30T04:10:30.049Z,4.30
2022-10-30T04:13:20.236Z,4.28
2022-10-30T04:16:09.010Z,6.28
2022-10-30T04:18:58.800Z,3.58
2022-10-30T04:21:47.815Z,4.05
2022-10-30T04:24:36.327Z,4.38
2022-10-30T04:27:24.892Z,4.00
2022-10-30T04:30:14.085Z,3.70
2022-10-30T04:33:03.459Z,4.43
2022-10-30T04:35:54.758Z,4.95
2022-10-30T04:38:43.309Z,6.68
2022-10-30T04:41:32.091Z,5.80
2022-10-30T04:44:20.487Z,4.70
2022-10-30T04:47:08.991Z,3.97
2022-10-30T04:49:57.533Z,3.85
2022-10-30T04:52:47.488Z,7.18
2022-10-30T04:55:36.145Z,5.72
2022-10-30T04:58:24.609Z,5.53
2022-10-30T05:01:13.211Z,4.32
2022-10-30T05:04:02.820Z,6.22
2022-10-30T05:06:51.274Z,4.65
2022-10-30T05:09:41.101Z,7.68
2022-10-30T05:12:29.572Z,3.67
2022-10-30T05:15:18.304Z,6.63
2022-10-30T05:18:06.812Z,5.15
2022-10-30T05:20:55.311Z,4.30
2022-10-30T05:23:46.051Z,6.10
2022-10-30T05:26:35.921Z,3.70
2022-10-30T05:29:24.508Z,3.47
2022-10-30T05:35:02.434Z,3.47
2022-10-30T05:37:51.136Z,3.83
2022-10-30T05:40:39.588Z,4.40
2022-10-30T05:43:29.464Z,4.70
2022-10-30T05:46:17.937Z,3.53
2022-10-30T05:49:06.509Z,3.60
2022-10-30T05:51:54.982Z,3.70
2022-10-30T05:54:43.458Z,4.00
2022-10-30T05:57:33.204Z,3.75
2022-10-30T06:00:23.145Z,7.15
2022-10-30T06:03:13.335Z,3.78
2022-10-30T06:06:01.876Z,4.90
2022-10-30T06:08:50.310Z,6.20
2022-10-30T06:11:41.044Z,4.30
2022-10-30T06:14:29.488Z,4.75
2022-10-30T06:17:19.328Z,9.40
2022-10-30T06:20:08.401Z,8.82
2022-10-30T06:22:57.746Z,4.22
2022-10-30T06:25:46.218Z,4.30
2022-10-30T06:28:34.780Z,3.72
2022-10-30T06:31:23.203Z,10.43
2022-10-30T06:34:15.014Z,5.25
2022-10-30T06:37:03.486Z,5.55
2022-10-30T06:39:51.988Z,5.25
2022-10-30T06:42:44.828Z,5.72
2022-10-30T06:45:33.252Z,3.75
2022-10-30T06:48:21.747Z,5.65
2022-10-30T06:51:12.504Z,4.82
2022-10-30T06:54:01.131Z,5.03
2022-10-30T06:56:51.861Z,3.60
2022-10-30T06:59:40.363Z,3.47
2022-10-30T07:02:28.994Z,5.35
2022-10-30T07:05:17.512Z,5.63
2022-10-30T07:08:07.885Z,4.90
2022-10-30T07:10:58.589Z,5.32
2022-10-30T07:13:47.186Z,5.10
2022-10-30T07:16:35.665Z,4.13
2022-10-30T07:19:24.327Z,7.78
2022-10-30T07:22:12.773Z,5.68
2022-10-30T07:25:02.755Z,4.47
2022-10-30T07:27:52.964Z,4.05
2022-10-30T07:30:41.491Z,4.60
2022-10-30T07:33:30.019Z,3.97
2022-10-30T07:36:18.569Z,4.28
2022-10-30T07:39:07.204Z,3.97
2022-10-30T07:41:57.039Z,3.45
2022-10-30T07:44:45.535Z,6.18
2022-10-30T07:47:33.973Z,3.60
2022-10-30T07:50:24.186Z,5.00
2022-10-30T07:53:12.760Z,3.75
2022-10-30T07:56:01.266Z,4.53
2022-10-30T07:58:51.164Z,4.47
2022-10-30T08:01:39.739Z,4.40
2022-10-30T08:04:28.454Z,4.38
2022-10-30T08:07:17.021Z,7.75
2022-10-30T08:10:06.488Z,4.30
2022-10-30T08:12:54.988Z,85.88
2022-10-30T08:15:45.137Z,29.08
2022-10-30T08:18:33.645Z,36.92
2022-10-30T08:21:22.500Z,13.55
2022-10-30T08:24:11.239Z,126.90
2022-10-30T08:26:59.788Z,50.90
2022-10-30T08:29:48.361Z,27.52
2022-10-30T08:32:38.144Z,38.92
2022-10-30T08:35:26.930Z,14.35
2022-10-30T08:38:15.441Z,12.23
2022-10-30T08:41:04.085Z,11.13
2022-10-30T08:43:52.513Z,12.65
2022-10-30T08:46:41.187Z,11.93
2022-10-30T08:49:30.982Z,15.05
2022-10-30T08:52:19.487Z,13.38
2022-10-30T08:55:09.456Z,13.48
2022-10-30T08:57:59.066Z,17.40
2022-10-30T09:00:47.673Z,12.68
2022-10-30T09:03:36.370Z,17.27
2022-10-30T09:06:26.222Z,12.13
2022-10-30T09:09:15.456Z,12.93
2022-10-30T09:12:03.911Z,11.30
2022-10-30T09:14:52.362Z,12.93
2022-10-30T09:17:40.803Z,12.40
2022-10-30T09:20:29.998Z,14.35
2022-10-30T09:23:19.850Z,16.10
2022-10-30T09:26:08.356Z,15.10
2022-10-30T09:28:56.756Z,13.43
2022-10-30T09:31:45.283Z,13.55
2022-10-30T09:34:33.715Z,14.02
2022-10-30T09:37:23.170Z,12.85
2022-10-30T09:40:21.295Z,19.58
2022-10-30T09:43:19.309Z,18.38
2022-10-30T09:46:19.901Z,12.75
2022-10-30T09:49:26.752Z,12.00
2022-10-30T09:52:22.541Z,10.52
2022-10-30T09:55:21.905Z,10.77
2022-10-30T09:58:24.645Z,10.68
2022-10-30T10:01:18.069Z,8.70
2022-10-30T10:04:20.961Z,8.85
2022-10-30T10:07:18.310Z,9.30
2022-10-30T10:10:11.379Z,12.02
2022-10-30T10:13:01.752Z,9.50
2022-10-30T10:15:52.208Z,8.02
2022-10-30T10:18:46.405Z,8.15
2022-10-30T10:21:38.486Z,8.60
2022-10-30T10:24:29.064Z,9.27
2022-10-30T10:27:23.553Z,10.65
2022-10-30T10:30:16.330Z,9.70
2022-10-30T10:33:34.384Z,7.35
2022-10-30T10:36:29.304Z,9.43
2022-10-30T10:39:34.758Z,12.85
2022-10-30T10:42:28.733Z,7.68
2022-10-30T10:45:24.451Z,6.80
2022-10-30T10:48:31.751Z,6.93
2022-10-30T10:51:23.309Z,7.47
2022-10-30T10:54:14.300Z,9.20
2022-10-30T10:57:05.649Z,7.95
2022-10-30T10:59:56.100Z,7.60
2022-10-30T11:02:49.442Z,8.60
2022-10-30T11:05:43.111Z,7.80
2022-10-30T11:08:33.368Z,7.30
2022-10-30T11:11:21.920Z,6.65
2022-10-30T11:14:14.892Z,7.30
2022-10-30T11:17:07.390Z,6.57
2022-10-30T11:20:02.333Z,6.32
2022-10-30T11:22:52.141Z,6.45
2022-10-30T11:25:40.544Z,6.45
2022-10-30T11:28:37.589Z,10.75
2022-10-30T11:31:34.132Z,6.10
2022-10-30T11:34:29.322Z,8.13
2022-10-30T11:37:31.639Z,8.18
2022-10-30T11:40:22.521Z,5.82
2022-10-30T11:43:12.880Z,5.93
2022-10-30T11:46:01.492Z,5.72
2022-10-30T11:48:54.841Z,6.10
2022-10-30T11:51:47.803Z,6.82
2022-10-30T11:54:41.408Z,7.05
2022-10-30T11:57:34.737Z,6.20
2022-10-30T12:00:25.471Z,9.18
2022-10-30T12:03:30.269Z,6.88
2022-10-30T12:06:21.236Z,6.95
2022-10-30T12:09:13.931Z,6.43
2022-10-30T12:12:12.504Z,5.78
2022-10-30T12:15:11.572Z,7.82
2022-10-30T12:18:02.366Z,6.22
2022-10-30T12:20:53.926Z,6.47
2022-10-30T12:23:42.343Z,7.50
2022-10-30T12:26:31.411Z,6.38
2022-10-30T12:29:36.536Z,6.32
2022-10-30T12:32:39.894Z,6.72
2022-10-30T12:35:44.370Z,10.20
2022-10-30T12:38:36.319Z,7.88
2022-10-30T12:41:27.056Z,6.70
2022-10-30T12:44:17.991Z,6.80
2022-10-30T12:47:11.136Z,15.02
2022-10-30T12:53:01.518Z,13.85
2022-10-30T12:55:52.689Z,16.45
2022-10-30T12:58:44.582Z,12.98
2022-10-30T13:01:36.948Z,15.18
2022-10-30T13:04:29.032Z,12.45
2022-10-30T13:07:21.145Z,15.05
2022-10-30T13:10:20.908Z,12.77
2022-10-30T13:13:14.558Z,12.77
2022-10-30T13:16:04.964Z,14.15
2022-10-30T13:18:55.500Z,18.05
2022-10-30T13:21:51.459Z,13.98
2022-10-30T13:24:48.141Z,11.13
2022-10-30T13:27:42.894Z,14.43
2022-10-30T13:30:35.757Z,13.40
2022-10-30T13:33:29.753Z,12.70
2022-10-30T13:36:23.814Z,14.50
2022-10-30T13:39:21.176Z,13.50
2022-10-30T13:42:24.039Z,13.98
2022-10-30T13:45:25.861Z,13.43
2022-10-30T13:48:20.731Z,13.15
2022-10-30T13:51:22.298Z,14.07
2022-10-30T13:54:17.608Z,18.08
2022-10-30T13:57:11.682Z,12.30
2022-10-30T14:00:06.017Z,10.27
2022-10-30T14:03:14.032Z,16.15
2022-10-30T14:06:06.413Z,16.67
2022-10-30T14:09:01.048Z,12.90
2022-10-30T14:11:50.936Z,15.88
2022-10-30T14:14:47.384Z,13.40
2022-10-30T14:17:35.874Z,18.58
2022-10-30T14:20:28.748Z,17.70
2022-10-30T14:23:22.720Z,20.30
2022-10-30T14:26:21.480Z,23.40
2022-10-30T14:29:46.231Z,20.42
2022-10-30T14:32:43.861Z,15.60
2022-10-30T14:35:40.237Z,16.45
2022-10-30T14:38:29.067Z,15.00
2022-10-30T14:41:27.151Z,14.52
2022-10-30T14:44:54.109Z,14.80
2022-10-30T14:47:52.578Z,17.40
2022-10-30T14:51:05.600Z,12.40
2022-10-30T14:54:00.812Z,14.80
2022-10-30T14:56:50.724Z,21.13
2022-10-30T14:59:39.564Z,21.90
2022-10-30T15:02:36.856Z,16.55
2022-10-30T15:05:42.362Z,17.55
2022-10-30T15:08:54.564Z,22.55
2022-10-30T15:12:01.806Z,22.40
2022-10-30T15:14:55.077Z,17.92
2022-10-30T15:17:46.013Z,16.80
2022-10-30T15:20:35.347Z,16.00
2022-10-30T15:23:26.629Z,18.13
2022-10-30T15:26:22.034Z,16.95
2022-10-30T15:29:18.515Z,15.90
2022-10-30T15:32:17.257Z,18.60
2022-10-30T15:35:16.742Z,17.60
2022-10-30T15:38:06.976Z,14.27
2022-10-30T15:40:58.660Z,18.02
2022-10-30T15:43:47.366Z,17.13
2022-10-30T15:46:35.924Z,17.33
2022-10-30T15:49:31.343Z,24.20
2022-10-30T15:52:22.735Z,19.65
2022-10-30T15:55:14.895Z,16.90
2022-10-30T15:58:05.489Z,15.63
2022-10-30T16:00:58.159Z,17.67
2022-10-30T16:03:53.551Z,14.93
2022-10-30T16:06:42.014Z,13.52
2022-10-30T16:09:31.856Z,13.50
2022-10-30T16:12:20.389Z,13.63
2022-10-30T16:15:10.779Z,14.65
2022-10-30T16:18:12.158Z,13.18
2022-10-30T16:21:04.585Z,15.27
2022-10-30T16:23:54.682Z,11.93
2022-10-30T16:26:44.591Z,17.77
2022-10-30T16:29:34.051Z,15.75
2022-10-30T16:32:29.354Z,13.88
2022-10-30T16:35:18.118Z,11.38
2022-10-30T16:38:08.749Z,14.18
2022-10-30T16:40:57.476Z,14.70
2022-10-30T16:44:27.097Z,15.00
2022-10-30T16:47:25.681Z,12.13
2022-10-30T16:50:16.618Z,12.75
2022-10-30T16:53:07.171Z,13.60
2022-10-30T16:55:57.106Z,13.05
2022-10-30T16:58:45.812Z,16.27
2022-10-30T17:01:37.238Z,11.95
2022-10-30T17:04:26.655Z,12.60
2022-10-30T17:07:19.821Z,11.05
2022-10-30T17:10:32.909Z,13.13
2022-10-30T17:13:32.953Z,11.25
2022-10-30T17:16:25.487Z,12.88
2022-10-30T17:19:48.318Z,10.10
2022-10-30T17:22:39.426Z,11.82
2022-10-30T17:25:32.698Z,11.15
2022-10-30T17:28:27.811Z,12.13
2022-10-30T17:31:24.977Z,13.80
2022-10-30T17:34:18.761Z,11.70
2022-10-30T17:37:07.273Z,11.98
2022-10-30T17:39:57.380Z,14.30
2022-10-30T17:42:48.045Z,13.93
2022-10-30T17:45:36.644Z,13.13
2022-10-30T17:48:27.500Z,12.45
2022-10-30T17:51:16.864Z,16.58
2022-10-30T17:54:09.940Z,16.20
2022-10-30T17:57:00.276Z,16.58
2022-10-30T17:59:48.719Z,12.70
2022-10-30T18:02:37.797Z,17.77
2022-10-30T18:05:34.762Z,13.23
2022-10-30T18:08:24.502Z,14.95
2022-10-30T18:11:14.270Z,16.15
2022-10-30T18:14:04.284Z,16.65
2022-10-30T18:16:55.544Z,13.10
2022-10-30T18:19:44.096Z,16.40
2022-10-30T18:22:32.701Z,13.15
2022-10-30T18:25:24.998Z,16.20
2022-10-30T18:28:13.395Z,26.92
2022-10-30T18:31:03.251Z,46.33
2022-10-30T18:33:51.914Z,52.13
2022-10-30T18:36:40.401Z,49.08
2022-10-30T18:39:28.910Z,50.40
2022-10-30T18:42:17.448Z,44.83
2022-10-30T18:45:18.800Z,53.40
2022-10-30T18:48:09.185Z,55.55
2022-10-30T18:51:00.086Z,49.20
2022-10-30T18:53:52.520Z,39.83
2022-10-30T18:56:41.197Z,42.72
2022-10-30T18:59:30.130Z,36.60
2022-10-30T19:02:22.498Z,28.90
2022-10-30T19:05:21.711Z,39.65
2022-10-30T19:08:10.453Z,31.98
2022-10-30T19:10:59.719Z,27.80
2022-10-30T19:13:48.752Z,29.10
2022-10-30T19:16:37.579Z,25.58
2022-10-30T19:19:26.023Z,26.42
2022-10-30T19:22:17.431Z,24.70
2022-10-30T19:25:18.903Z,21.10
2022-10-30T19:28:07.378Z,26.23
2022-10-30T19:30:55.879Z,23.38
2022-10-30T19:33:44.381Z,29.48
2022-10-30T19:36:36.006Z,24.48
2022-10-30T19:39:26.649Z,21.75
2022-10-30T19:42:15.196Z,21.30
2022-10-30T19:45:03.594Z,19.98
2022-10-30T19:47:53.517Z,19.25
2022-10-30T19:50:43.551Z,22.98
2022-10-30T19:53:31.954Z,19.08
2022-10-30T19:56:22.044Z,21.90
2022-10-30T19:59:11.413Z,18.98
2022-10-30T20:01:59.933Z,19.95
2022-10-30T20:04:50.198Z,20.33
2022-10-30T20:07:38.772Z,20.25
2022-10-30T20:10:27.490Z,20.63
2022-10-30T20:13:17.392Z,19.27
2022-10-30T20:16:06.895Z,17.20
2022-10-30T20:18:55.404Z,22.95
2022-10-30T20:21:43.914Z,18.92
2022-10-30T20:24:32.440Z,21.05
2022-10-30T20:27:20.957Z,15.13
2022-10-30T20:30:15.598Z,17.10
2022-10-30T20:33:04.143Z,17.65
2022-10-30T20:35:54.555Z,19.23
2022-10-30T20:38:43.107Z,17.90
2022-10-30T20:41:31.847Z,16.35
2022-10-30T20:44:20.306Z,13.40
2022-10-30T20:47:10.100Z,17.40
2022-10-30T20:49:58.566Z,17.13
2022-10-30T20:52:48.184Z,17.33
2022-10-30T20:55:36.694Z,22.27
2022-10-30T20:58:25.710Z,18.10
2022-10-30T21:01:14.253Z,19.70
2022-10-30T21:04:04.225Z,20.48
2022-10-30T21:06:52.740Z,15.30
2022-10-30T21:09:41.119Z,16.10
2022-10-30T21:12:29.582Z,18.27
2022-10-30T21:15:18.166Z,15.80
2022-10-30T21:18:06.683Z,19.58
2022-10-30T21:20:56.387Z,18.48
2022-10-30T21:23:44.820Z,17.95
2022-10-30T21:26:34.972Z,17.83
2022-10-30T21:29:23.463Z,17.63
2022-10-30T21:32:11.867Z,15.55
2022-10-30T21:35:00.334Z,19.23
2022-10-30T21:37:50.195Z,17.40
2022-10-30T21:40:38.593Z,17.50
2022-10-30T21:43:27.117Z,16.58
2022-10-30T21:46:15.605Z,15.32
2022-10-30T21:49:05.231Z,13.93
2022-10-30T21:51:53.693Z,14.95
2022-10-30T21:54:43.476Z,17.65
2022-10-30T21:57:31.848Z,14.35
2022-10-30T22:00:20.620Z,13.10
2022-10-30T22:03:11.486Z,11.27
2022-10-30T22:05:59.954Z,14.50
2022-10-30T22:08:49.564Z,14.40
2022-10-30T22:11:39.671Z,13.57
2022-10-30T22:14:29.312Z,18.25
2022-10-30T22:17:17.906Z,16.13
2022-10-30T22:20:07.317Z,17.90
2022-10-30T22:22:55.825Z,16.23
2022-10-30T22:25:44.259Z,17.77
2022-10-30T22:28:35.090Z,16.08
2022-10-30T22:31:25.046Z,19.10
2022-10-30T22:34:13.498Z,15.88
2022-10-30T22:37:01.964Z,14.18
2022-10-30T22:39:50.460Z,15.07
2022-10-30T22:42:38.881Z,16.33
2022-10-30T22:45:28.588Z,12.27
2022-10-30T22:48:17.070Z,18.50
2022-10-30T22:51:13.541Z,14.57
2022-10-30T22:54:06.901Z,13.90
2022-10-30T22:56:56.952Z,11.77
2022-10-30T22:59:45.785Z,18.00
2022-10-30T23:02:35.920Z,14.55
2022-10-30T23:05:24.452Z,13.90
2022-10-30T23:08:12.861Z,16.05
2022-10-30T23:11:01.356Z,13.60
2022-10-30T23:13:50.076Z,16.90
2022-10-30T23:17:15.109Z,12.52
2022-10-30T23:20:06.793Z,14.45
2022-10-30T23:22:55.167Z,13.98
2022-10-30T23:25:43.607Z,16.02
2022-10-30T23:28:32.126Z,14.88
2022-10-30T23:31:24.095Z,15.30
2022-10-30T23:34:13.746Z,13.25
2022-10-30T23:37:04.757Z,15.25
2022-10-30T23:39:54.023Z,11.45
2022-10-30T23:42:42.476Z,14.05
2022-10-30T23:46:02.776Z,11.43
2022-10-30T23:48:51.631Z,12.07
2022-10-30T23:51:40.276Z,11.30
2022-10-30T23:54:30.061Z,11.65
2022-10-30T23:57:18.512Z,11.93
